Time;durP1;ratioP1;P1;durP2;ratioP2;P2;SDS_P1;SDS_P2;PMS_P1;PMS_P2;Temp;Humidity;BMP_temperature;BMP_pressure;BME280_temperature;BME280_humidity;BME280_pressure;Samples;Min_cycle;Max_cycle;Signal;HPM_P1;HPM_P2
2023/06/16 00:00:03;;;;;;;5.20;3.80;;;;;;;17.88;57.70;99486.31;339672;28;5452;-69
2023/06/16 00:00:16;;;;;;;5.88;3.70;;;;;;;17.89;57.85;99482.75;336944;28;18049;-69
2023/06/16 00:00:32;;;;;;;5.85;3.65;;;;;;;17.88;57.66;99481.06;337426;28;16151;-69
2023/06/16 00:00:45;;;;;;;4.97;3.88;;;;;;;17.86;57.86;99488.19;338362;28;18184;-69
2023/06/16 00:00:59;;;;;;;5.28;3.80;;;;;;;17.87;57.95;99489.06;340993;28;5518;-69
2023/06/16 00:01:15;;;;;;;5.10;3.60;;;;;;;17.89;57.87;99482.75;337338;28;17944;-69
2023/06/16 00:01:31;;;;;;;4.55;3.83;;;;;;;17.92;57.57;99482.53;337297;28;17709;-69
2023/06/16 00:01:44;;;;;;;4.30;3.80;;;;;;;17.95;57.77;99484.13;337545;28;17728;-69
2023/06/16 00:01:57;;;;;;;4.90;3.63;;;;;;;17.96;57.78;99484.00;339994;28;5175;-69
2023/06/16 00:02:12;;;;;;;5.30;3.72;;;;;;;17.94;57.97;99479.81;335927;28;18171;-70
2023/06/16 00:02:24;;;;;;;5.10;3.72;;;;;;;17.95;57.75;99477.09;336620;28;17978;-69
2023/06/16 00:02:37;;;;;;;4.78;3.70;;;;;;;17.96;57.76;99484.00;339956;28;4636;-70
2023/06/16 00:02:49;;;;;;;4.78;3.70;;;;;;;17.98;57.36;99483.09;337101;28;11546;-69
2023/06/16 00:03:01;;;;;;;5.18;3.97;;;;;;;17.98;57.27;99475.19;339786;28;4633;-69
2023/06/16 00:03:15;;;;;;;4.97;3.80;;;;;;;17.98;57.33;99489.19;337510;28;16555;-69
2023/06/16 00:03:33;;;;;;;4.70;3.70;;;;;;;17.99;57.11;99487.38;337580;28;11527;-70
2023/06/16 00:03:49;;;;;;;5.07;3.70;;;;;;;17.99;57.17;99482.13;337389;28;17753;-69
2023/06/16 00:04:03;;;;;;;5.07;3.60;;;;;;;17.96;56.88;99486.66;337152;28;17865;-69
2023/06/16 00:04:17;;;;;;;4.43;3.70;;;;;;;17.95;56.85;99482.34;337356;28;17638;-69
2023/06/16 00:04:29;;;;;;;4.05;3.55;;;;;;;17.96;56.88;99486.66;336218;28;19197;-69
2023/06/16 00:04:43;;;;;;;4.60;3.40;;;;;;;17.96;56.98;99481.38;339196;28;4690;-69
2023/06/16 00:04:56;;;;;;;5.10;3.60;;;;;;;17.95;56.87;99477.09;337093;28;19052;-69
2023/06/16 00:05:10;;;;;;;4.65;3.67;;;;;;;17.96;56.71;99478.75;336505;28;11584;-69
2023/06/16 00:05:22;;;;;;;4.43;3.60;;;;;;;17.96;56.59;99486.66;338775;28;4628;-69
2023/06/16 00:05:34;;;;;;;4.30;3.63;;;;;;;17.94;56.81;99480.66;336805;28;18199;-69
2023/06/16 00:05:47;;;;;;;5.53;3.85;;;;;;;17.91;56.78;99480.88;339479;28;6313;-69
2023/06/16 00:06:04;;;;;;;5.47;3.92;;;;;;;17.90;56.79;99483.59;336593;28;6387;-69
2023/06/16 00:06:19;;;;;;;4.63;3.60;;;;;;;17.90;56.74;99481.78;336141;28;16462;-69
2023/06/16 00:06:31;;;;;;;4.82;3.53;;;;;;;17.90;56.75;99483.59;335728;28;18532;-69
2023/06/16 00:06:47;;;;;;;4.50;3.55;;;;;;;17.89;56.65;99484.53;334145;28;12482;-70
2023/06/16 00:06:59;;;;;;;4.32;3.50;;;;;;;17.88;56.75;99486.31;336413;28;11990;-70
2023/06/16 00:07:11;;;;;;;4.15;3.67;;;;;;;17.86;56.89;99484.72;337741;28;5154;-69
2023/06/16 00:07:23;;;;;;;4.88;3.55;;;;;;;17.84;56.86;99479.56;338095;28;4753;-69
2023/06/16 00:07:38;;;;;;;5.25;3.67;;;;;;;17.81;56.73;99485.00;336195;28;18342;-69
2023/06/16 00:07:51;;;;;;;5.47;3.75;;;;;;;17.78;57.06;99482.56;336279;28;18150;-69
2023/06/16 00:08:03;;;;;;;4.53;3.70;;;;;;;17.79;56.97;99481.63;338695;28;12585;-69
2023/06/16 00:08:16;;;;;;;4.05;3.63;;;;;;;17.80;57.30;99475.41;336354;28;17989;-69
2023/06/16 00:08:31;;;;;;;4.00;3.60;;;;;;;17.81;57.36;99479.75;337341;28;6813;-69
2023/06/16 00:08:48;;;;;;;4.20;3.60;;;;;;;17.79;58.05;99486.91;337243;28;11539;-69
2023/06/16 00:09:00;;;;;;;5.03;3.78;;;;;;;17.77;58.04;99483.53;338483;28;18031;-69
2023/06/16 00:09:13;;;;;;;4.85;3.70;;;;;;;17.73;58.10;99487.28;340044;28;5487;-69
2023/06/16 00:09:28;;;;;;;6.47;3.70;;;;;;;17.65;58.26;99474.66;336667;28;18159;-69
2023/06/16 00:09:40;;;;;;;6.53;3.97;;;;;;;17.62;58.01;99479.25;335959;28;17913;-69
2023/06/16 00:09:52;;;;;;;4.85;3.90;;;;;;;17.61;58.24;99485.47;339586;28;5545;-69
2023/06/16 00:10:08;;;;;;;4.68;3.72;;;;;;;17.61;58.08;99488.09;336090;28;18265;-69
2023/06/16 00:10:20;;;;;;;4.57;3.72;;;;;;;17.55;58.36;99484.91;335772;28;18225;-70
2023/06/16 00:10:32;;;;;;;5.03;3.90;;;;;;;17.46;58.55;99479.38;339035;28;5186;-69
2023/06/16 00:10:44;;;;;;;6.22;3.80;;;;;;;17.46;58.44;99474.97;335320;28;10270;-69
2023/06/16 00:10:56;;;;;;;6.05;3.60;;;;;;;17.51;58.69;99474.69;338720;28;4592;-69
2023/06/16 00:11:08;;;;;;;5.38;3.75;;;;;;;17.47;58.88;99479.28;335897;28;17415;-69
2023/06/16 00:11:22;;;;;;;5.50;3.75;;;;;;;17.48;58.54;99480.97;338351;28;4564;-69
2023/06/16 00:11:34;;;;;;;5.72;3.90;;;;;;;17.51;58.32;99477.31;334769;28;18123;-69
2023/06/16 00:11:46;;;;;;;5.93;4.00;;;;;;;17.46;58.49;99484.63;337589;28;4766;-69
2023/06/16 00:11:58;;;;;;;7.10;4.00;;;;;;;17.41;58.96;99477.06;334726;28;5635;-70
2023/06/16 00:12:10;;;;;;;6.70;3.72;;;;;;;17.39;58.88;99481.56;337341;28;4654;-69
2023/06/16 00:12:23;;;;;;;5.35;3.90;;;;;;;17.38;59.14;99477.25;338858;28;5637;-69
2023/06/16 00:12:36;;;;;;;4.38;3.80;;;;;;;17.39;58.61;99480.72;331492;28;18998;-69
2023/06/16 00:12:48;;;;;;;4.72;3.97;;;;;;;17.39;58.74;99478.94;336464;28;4848;-69
2023/06/16 00:13:00;;;;;;;4.88;3.85;;;;;;;17.41;58.60;99477.06;333622;28;18418;-69
2023/06/16 00:13:12;;;;;;;5.63;3.95;;;;;;;17.42;58.54;99477.91;334997;28;5007;-69
2023/06/16 00:13:24;;;;;;;5.32;4.00;;;;;;;17.41;58.62;99477.06;333132;28;18266;-69
2023/06/16 00:13:36;;;;;;;5.45;4.05;;;;;;;17.42;58.72;99476.09;336561;28;4680;-69
2023/06/16 00:13:49;;;;;;;5.00;3.90;;;;;;;17.44;58.92;99471.59;335548;28;12225;-70
2023/06/16 00:14:01;;;;;;;4.30;3.80;;;;;;;17.46;58.83;99474.97;339131;28;5262;-69
2023/06/16 00:14:14;;;;;;;4.00;3.60;;;;;;;17.49;59.35;99477.41;337244;28;11939;-70
2023/06/16 00:14:26;;;;;;;3.88;3.53;;;;;;;17.50;59.33;99475.63;339926;28;4666;-69
2023/06/16 00:14:38;;;;;;;4.15;3.75;;;;;;;17.50;59.21;99471.19;339784;28;4682;-69
2023/06/16 00:14:50;;;;;;;4.60;3.80;;;;;;;17.48;59.38;99477.50;337455;28;18254;-69
2023/06/16 00:15:02;;;;;;;4.28;3.53;;;;;;;17.48;58.96;99473.09;339684;28;5444;-69
2023/06/16 00:15:14;;;;;;;4.68;3.60;;;;;;;17.50;58.97;99478.25;337248;28;19167;-70
2023/06/16 00:15:26;;;;;;;5.05;3.85;;;;;;;17.50;58.92;99476.44;339825;28;4604;-69
2023/06/16 00:15:39;;;;;;;4.95;4.00;;;;;;;17.51;59.01;99478.16;337068;28;12359;-69
2023/06/16 00:15:51;;;;;;;4.60;4.03;;;;;;;17.49;59.30;99480.03;339097;28;4621;-70
2023/06/16 00:16:03;;;;;;;4.70;4.03;;;;;;;17.51;58.86;99478.16;339925;28;5580;-69
2023/06/16 00:16:19;;;;;;;5.82;3.95;;;;;;;17.52;58.65;99473.72;335667;28;18310;-69
2023/06/16 00:16:32;;;;;;;5.55;3.90;;;;;;;17.53;58.66;99476.28;337299;28;18085;-69
2023/06/16 00:16:45;;;;;;;4.22;3.60;;;;;;;17.53;59.04;99481.53;335279;28;17823;-68
2023/06/16 00:16:57;;;;;;;4.20;3.50;;;;;;;17.55;58.91;99479.66;339963;28;5191;-69
2023/06/16 00:17:10;;;;;;;4.93;3.75;;;;;;;17.55;58.81;99474.38;337699;28;18046;-69
2023/06/16 00:17:23;;;;;;;6.70;3.90;;;;;;;17.54;58.77;99477.94;340236;28;4851;-68
2023/06/16 00:17:44;;;;;;;7.63;4.00;;;;;;;17.52;59.14;99471.94;337245;28;17983;-69
2023/06/16 00:18:00;;;;;;;5.88;3.70;;;;;;;17.58;58.79;99476.81;335899;28;18333;-68
2023/06/16 00:18:12;;;;;;;6.00;3.65;;;;;;;17.57;58.78;99477.75;336641;28;17292;-69
2023/06/16 00:18:27;;;;;;;5.43;3.70;;;;;;;17.60;59.00;99475.88;337493;28;18113;-69
2023/06/16 00:18:43;;;;;;;4.68;3.70;;;;;;;17.58;58.47;99478.59;338236;28;12215;-69
2023/06/16 00:18:59;;;;;;;6.25;3.50;;;;;;;17.61;58.60;99482.84;338481;28;17942;-68
2023/06/16 00:19:12;;;;;;;5.47;3.55;;;;;;;17.63;58.60;99470.44;337523;28;18106;-69
2023/06/16 00:19:28;;;;;;;4.38;3.72;;;;;;;17.67;58.32;99475.38;337249;28;16026;-69
2023/06/16 00:19:41;;;;;;;4.30;3.63;;;;;;;17.69;58.25;99480.56;334340;28;18135;-69
2023/06/16 00:19:57;;;;;;;5.10;3.60;;;;;;;17.68;58.69;99474.44;338788;28;4663;-69
2023/06/16 00:20:12;;;;;;;5.05;3.67;;;;;;;17.69;58.38;99472.66;335255;28;18276;-70
2023/06/16 00:20:25;;;;;;;5.25;3.97;;;;;;;17.68;58.19;99473.59;334011;28;18144;-69
2023/06/16 00:20:37;;;;;;;4.95;3.85;;;;;;;17.69;58.09;99478.75;339027;28;5442;-68
2023/06/16 00:20:51;;;;;;;3.90;3.50;;;;;;;17.71;58.18;99479.50;334743;28;11412;-69
2023/06/16 00:21:04;;;;;;;4.28;3.55;;;;;;;17.72;58.47;99475.06;333844;28;11379;-69
2023/06/16 00:21:19;;;;;;;5.55;3.78;;;;;;;17.72;58.56;99480.34;335746;28;4587;-69
2023/06/16 00:21:37;;;;;;;5.50;3.72;;;;;;;17.72;58.44;99475.06;333222;28;18146;-69
2023/06/16 00:21:50;;;;;;;5.65;3.72;;;;;;;17.65;58.39;99473.81;333622;28;15867;-68
2023/06/16 00:22:06;;;;;;;5.80;3.88;;;;;;;17.63;58.33;99476.53;338760;28;4768;-69
2023/06/16 00:22:18;;;;;;;5.10;4.00;;;;;;;17.61;58.52;99478.41;336967;28;17749;-69
2023/06/16 00:22:32;;;;;;;5.37;3.90;;;;;;;17.62;58.49;99474.00;336213;28;18665;-68
2023/06/16 00:22:47;;;;;;;6.93;4.13;;;;;;;17.63;58.20;99475.69;336146;28;15943;-68
2023/06/16 00:23:00;;;;;;;6.72;4.00;;;;;;;17.60;58.28;99479.34;336094;28;17465;-69
2023/06/16 00:23:16;;;;;;;5.38;3.70;;;;;;;17.63;58.41;99475.69;340266;28;4733;-69
2023/06/16 00:23:29;;;;;;;8.45;3.60;;;;;;;17.65;58.24;99473.81;337362;28;17824;-69
2023/06/16 00:23:41;;;;;;;10.80;3.75;;;;;;;17.65;58.31;99479.06;336884;28;18293;-69
2023/06/16 00:23:54;;;;;;;9.60;3.90;;;;;;;17.67;58.56;99479.81;336346;28;10750;-69
2023/06/16 00:24:08;;;;;;;7.38;3.72;;;;;;;17.67;58.37;99485.06;337362;28;4655;-69
2023/06/16 00:24:20;;;;;;;6.18;3.70;;;;;;;17.65;58.41;99479.06;335776;28;18038;-69
2023/06/16 00:24:32;;;;;;;6.05;3.60;;;;;;;17.64;58.29;99478.19;337217;28;5338;-69
2023/06/16 00:24:45;;;;;;;4.65;3.63;;;;;;;17.62;58.59;99479.25;335862;28;18023;-69
2023/06/16 00:24:59;;;;;;;4.60;3.70;;;;;;;17.63;58.40;99476.53;338607;28;4506;-70
2023/06/16 00:25:11;;;;;;;4.57;3.55;;;;;;;17.65;58.58;99479.06;336802;28;17122;-68
2023/06/16 00:25:23;;;;;;;4.50;3.38;;;;;;;17.67;58.43;99480.66;339966;28;5397;-68
2023/06/16 00:25:35;;;;;;;4.50;3.50;;;;;;;17.67;58.46;99483.28;337178;28;18023;-68
2023/06/16 00:25:48;;;;;;;4.68;3.50;;;;;;;17.64;58.75;99482.63;340020;28;4950;-68
2023/06/16 00:26:00;;;;;;;4.00;3.60;;;;;;;17.65;58.41;99479.91;336589;28;18307;-68
2023/06/16 00:26:12;;;;;;;3.95;3.55;;;;;;;17.60;58.38;99481.13;339231;28;5240;-68
2023/06/16 00:26:24;;;;;;;4.13;3.70;;;;;;;17.60;58.43;99481.13;336177;28;16369;-69
2023/06/16 00:26:36;;;;;;;5.57;3.90;;;;;;;17.57;58.65;99476.94;338930;28;4656;-68
2023/06/16 00:26:48;;;;;;;5.65;3.92;;;;;;;17.60;58.51;99478.50;340141;28;4646;-69
2023/06/16 00:27:00;;;;;;;5.13;3.80;;;;;;;17.62;58.65;99480.09;337307;28;18258;-69
2023/06/16 00:27:12;;;;;;;5.15;3.80;;;;;;;17.61;58.16;99482.84;340057;28;4515;-69
2023/06/16 00:27:24;;;;;;;5.47;3.90;;;;;;;17.63;58.44;99480.94;337517;28;17886;-69
2023/06/16 00:27:36;;;;;;;4.72;3.90;;;;;;;17.64;58.18;99472.09;340037;28;4651;-68
2023/06/16 00:27:48;;;;;;;4.47;3.78;;;;;;;17.67;58.16;99477.19;337429;28;5522;-69
2023/06/16 00:28:00;;;;;;;4.38;3.80;;;;;;;17.69;58.01;99472.66;339150;28;18232;-68
2023/06/16 00:28:12;;;;;;;4.93;3.85;;;;;;;17.68;57.88;99476.22;339765;28;5192;-68
2023/06/16 00:28:24;;;;;;;4.87;3.93;;;;;;;17.71;57.78;99478.66;335454;28;17408;-69
2023/06/16 00:28:38;;;;;;;4.32;3.83;;;;;;;17.71;57.82;99468.16;338174;28;5288;-69
2023/06/16 00:28:50;;;;;;;4.47;3.67;;;;;;;17.72;58.07;99472.44;334726;28;18083;-68
2023/06/16 00:29:03;;;;;;;4.60;3.70;;;;;;;17.73;57.84;99472.34;337169;28;4670;-68
2023/06/16 00:29:15;;;;;;;5.32;4.03;;;;;;;17.74;57.97;99470.56;333170;28;18186;-69
2023/06/16 00:29:27;;;;;;;5.65;4.03;;;;;;;17.74;57.57;99475.81;337310;28;4712;-69
2023/06/16 00:29:40;;;;;;;5.57;3.90;;;;;;;17.75;57.83;99474.91;334258;28;15992;-69
2023/06/16 00:29:52;;;;;;;5.10;4.10;;;;;;;17.76;57.69;99471.31;338753;28;4551;-69
2023/06/16 00:30:05;;;;;;;5.20;3.95;;;;;;;17.76;57.47;99481.81;335742;28;16181;-68
2023/06/16 00:30:17;;;;;;;4.80;3.80;;;;;;;17.76;57.59;99477.41;338869;28;5255;-69
2023/06/16 00:30:29;;;;;;;4.53;3.85;;;;;;;17.76;57.37;99477.41;335948;28;18333;-69
2023/06/16 00:30:43;;;;;;;4.43;3.83;;;;;;;17.77;57.42;99479.09;338205;28;5587;-68
2023/06/16 00:30:55;;;;;;;4.72;3.78;;;;;;;17.77;57.97;99476.47;334587;28;15796;-69
2023/06/16 00:31:07;;;;;;;4.47;3.70;;;;;;;17.77;57.62;99478.25;339085;28;5341;-69
2023/06/16 00:31:20;;;;;;;4.68;3.67;;;;;;;17.75;57.84;99475.72;337286;28;18090;-69
2023/06/16 00:31:33;;;;;;;4.80;3.65;;;;;;;17.76;57.79;99479.19;339258;28;4575;-69
2023/06/16 00:31:45;;;;;;;6.15;3.83;;;;;;;17.78;57.96;99474.69;336640;28;18128;-69
2023/06/16 00:31:57;;;;;;;5.65;3.90;;;;;;;17.75;58.28;99478.34;339987;28;4682;-70
2023/06/16 00:32:09;;;;;;;5.00;3.70;;;;;;;17.76;58.13;99481.81;337027;28;16004;-69
2023/06/16 00:32:21;;;;;;;5.20;3.80;;;;;;;17.77;58.05;99478.25;339609;28;4538;-69
2023/06/16 00:32:33;;;;;;;5.00;3.60;;;;;;;17.77;58.11;99476.47;339764;28;5172;-69
2023/06/16 00:32:45;;;;;;;4.15;3.50;;;;;;;17.78;58.28;99475.50;336107;28;17939;-68
2023/06/16 00:32:57;;;;;;;4.20;3.42;;;;;;;17.78;58.13;99478.13;338521;28;4553;-69
2023/06/16 00:33:13;;;;;;;4.75;3.70;;;;;;;17.79;58.07;99481.63;335313;28;18132;-69
2023/06/16 00:33:25;;;;;;;4.72;3.67;;;;;;;17.78;58.18;99475.50;336811;28;17890;-69
2023/06/16 00:33:37;;;;;;;6.40;3.85;;;;;;;17.79;58.20;99476.38;338976;28;4700;-69
2023/06/16 00:33:49;;;;;;;6.80;3.85;;;;;;;17.77;58.27;99483.53;337490;28;5500;-69
2023/06/16 00:34:01;;;;;;;5.22;3.78;;;;;;;17.77;58.36;99483.53;339571;28;5424;-69
2023/06/16 00:34:14;;;;;;;4.32;3.55;;;;;;;17.76;58.29;99477.41;337780;28;9046;-69
2023/06/16 00:34:26;;;;;;;4.20;3.50;;;;;;;17.76;58.22;99481.81;340042;28;5495;-69
2023/06/16 00:34:38;;;;;;;4.43;3.70;;;;;;;17.77;58.25;99478.25;339939;28;4715;-68
2023/06/16 00:34:50;;;;;;;4.45;3.80;;;;;;;17.78;58.13;99480.78;335842;28;10994;-69
2023/06/16 00:35:02;;;;;;;4.85;3.92;;;;;;;17.77;58.23;99470.38;338394;28;4516;-69
2023/06/16 00:35:14;;;;;;;4.93;3.80;;;;;;;17.76;58.54;99476.56;335936;28;11215;-69
2023/06/16 00:35:26;;;;;;;4.68;3.70;;;;;;;17.76;58.51;99479.19;338296;28;4486;-69
2023/06/16 00:35:38;;;;;;;4.60;3.65;;;;;;;17.78;58.51;99485.19;338766;28;5076;-68
2023/06/16 00:35:50;;;;;;;4.55;3.60;;;;;;;17.79;58.65;99479.00;336280;28;18268;-68
2023/06/16 00:36:02;;;;;;;4.35;3.60;;;;;;;17.80;58.60;99477.22;338578;28;4696;-69
2023/06/16 00:36:15;;;;;;;4.47;3.83;;;;;;;17.81;58.40;99477.13;335935;28;18487;-69
2023/06/16 00:36:27;;;;;;;5.53;3.90;;;;;;;17.79;58.42;99484.25;338465;28;4653;-69
2023/06/16 00:36:39;;;;;;;5.85;3.70;;;;;;;17.79;58.53;99473.75;334988;28;16627;-69
2023/06/16 00:36:51;;;;;;;5.03;3.70;;;;;;;17.81;58.45;99474.50;337557;28;5205;-70
2023/06/16 00:37:03;;;;;;;4.60;3.60;;;;;;;17.81;58.36;99484.13;337427;28;4555;-69
2023/06/16 00:37:15;;;;;;;4.10;3.58;;;;;;;17.78;58.47;99472.03;334673;28;18089;-68
2023/06/16 00:37:27;;;;;;;4.30;3.60;;;;;;;17.80;58.41;99478.06;337288;28;4791;-69
2023/06/16 00:37:39;;;;;;;4.13;3.60;;;;;;;17.78;58.56;99475.50;334451;28;17947;-69
2023/06/16 00:37:51;;;;;;;4.18;3.70;;;;;;;17.78;58.93;99480.78;337356;28;5367;-69
2023/06/16 00:38:03;;;;;;;4.20;3.80;;;;;;;17.79;58.65;99476.38;338011;28;5252;-69
2023/06/16 00:38:15;;;;;;;4.50;3.78;;;;;;;17.80;58.81;99472.78;336130;28;19039;-69
2023/06/16 00:38:28;;;;;;;4.43;3.58;;;;;;;17.82;58.39;99475.31;338408;28;4513;-69
2023/06/16 00:38:40;;;;;;;4.82;3.60;;;;;;;17.81;58.54;99477.13;336066;28;18247;-69
2023/06/16 00:38:52;;;;;;;5.15;3.70;;;;;;;17.80;58.54;99472.78;339680;28;5557;-69
2023/06/16 00:39:04;;;;;;;5.13;3.70;;;;;;;17.78;58.69;99475.50;337218;28;5216;-69
2023/06/16 00:39:16;;;;;;;4.50;3.88;;;;;;;17.78;58.60;99475.50;338959;28;4554;-69
2023/06/16 00:39:28;;;;;;;4.63;3.85;;;;;;;17.81;58.23;99474.50;339803;28;4691;-68
2023/06/16 00:39:40;;;;;;;4.43;3.80;;;;;;;17.83;58.23;99472.63;336813;28;18013;-69
2023/06/16 00:39:54;;;;;;;4.25;3.72;;;;;;;17.85;58.03;99476.00;340065;28;4695;-68
2023/06/16 00:40:06;;;;;;;4.10;3.70;;;;;;;17.87;58.16;99474.13;335819;28;18299;-69
2023/06/16 00:40:19;;;;;;;4.43;3.83;;;;;;;17.88;57.65;99474.94;338183;28;12580;-69
2023/06/16 00:40:31;;;;;;;5.22;3.97;;;;;;;17.89;57.75;99474.84;336185;28;18622;-69
2023/06/16 00:40:43;;;;;;;5.53;4.00;;;;;;;17.87;57.77;99471.50;338849;28;4646;-69
2023/06/16 00:40:55;;;;;;;4.88;3.65;;;;;;;17.88;57.76;99475.78;335807;28;18123;-69
2023/06/16 00:41:07;;;;;;;4.60;3.65;;;;;;;17.84;57.94;99471.69;338711;28;5249;-69
2023/06/16 00:41:19;;;;;;;4.78;3.38;;;;;;;17.82;57.67;99468.28;335994;28;17424;-69
2023/06/16 00:41:31;;;;;;;6.30;3.63;;;;;;;17.81;57.82;99471.88;338986;28;4708;-69
2023/06/16 00:41:43;;;;;;;6.50;3.80;;;;;;;17.81;58.01;99474.50;338700;28;5109;-70
2023/06/16 00:41:55;;;;;;;6.07;3.90;;;;;;;17.80;58.57;99470.16;336299;28;19192;-69
2023/06/16 00:42:08;;;;;;;5.15;3.75;;;;;;;17.79;58.13;99471.13;338560;28;4895;-69
2023/06/16 00:42:20;;;;;;;5.23;3.80;;;;;;;17.77;58.23;99473.00;336137;28;18540;-69
2023/06/16 00:42:32;;;;;;;5.28;3.83;;;;;;;17.74;58.17;99478.44;338569;28;5574;-68
2023/06/16 00:42:44;;;;;;;5.47;3.90;;;;;;;17.74;57.97;99470.56;336010;28;11544;-69
2023/06/16 00:42:58;;;;;;;5.15;4.10;;;;;;;17.71;58.14;99462.91;338631;28;5318;-69
2023/06/16 00:43:10;;;;;;;5.10;3.93;;;;;;;17.66;58.47;99463.16;337443;28;18294;-68
2023/06/16 00:43:22;;;;;;;5.35;3.83;;;;;;;17.66;58.28;99470.22;339865;28;5334;-69
2023/06/16 00:43:34;;;;;;;5.10;3.80;;;;;;;17.65;58.25;99460.66;337298;28;7962;-69
2023/06/16 00:43:46;;;;;;;4.25;3.75;;;;;;;17.62;58.18;99468.72;339729;28;5200;-69
2023/06/16 00:43:58;;;;;;;4.65;3.90;;;;;;;17.57;58.03;99466.41;339807;28;5316;-69
2023/06/16 00:44:10;;;;;;;4.95;3.78;;;;;;;17.55;58.28;99463.88;337301;28;18090;-69
2023/06/16 00:44:22;;;;;;;5.55;3.88;;;;;;;17.60;58.33;99465.38;339909;28;4528;-68
2023/06/16 00:44:34;;;;;;;6.65;3.92;;;;;;;17.60;58.37;99466.19;337594;28;4771;-69
2023/06/16 00:44:46;;;;;;;7.00;3.88;;;;;;;17.61;58.40;99465.28;339943;28;4649;-68
2023/06/16 00:44:58;;;;;;;6.88;3.70;;;;;;;17.61;58.43;99461.81;339899;28;4679;-68
2023/06/16 00:45:10;;;;;;;6.95;3.85;;;;;;;17.62;58.58;99463.47;336633;28;18348;-69
2023/06/16 00:45:22;;;;;;;9.00;4.10;;;;;;;17.61;58.95;99456.56;339787;28;5730;-68
2023/06/16 00:45:35;;;;;;;7.85;4.05;;;;;;;17.64;58.59;99462.44;336626;28;17488;-68
2023/06/16 00:45:50;;;;;;;5.53;3.88;;;;;;;17.69;58.73;99464.78;339747;28;5263;-68
2023/06/16 00:46:02;;;;;;;4.30;3.67;;;;;;;17.63;58.53;99454.66;337244;28;19053;-69
2023/06/16 00:46:26;;;;;;;5.63;3.93;;;;;;;17.55;58.38;99463.88;335333;28;12192;-68
2023/06/16 00:46:38;;;;;;;4.78;3.60;;;;;;;17.55;58.42;99458.63;335924;28;17525;-69
2023/06/16 00:46:50;;;;;;;3.83;3.45;;;;;;;17.58;58.21;99458.41;335875;28;18427;-69
2023/06/16 00:47:02;;;;;;;3.90;3.47;;;;;;;17.61;57.98;99461.81;338999;28;4638;-69
2023/06/16 00:47:15;;;;;;;4.95;3.60;;;;;;;17.59;58.13;99461.91;336216;28;18241;-68
2023/06/16 00:47:27;;;;;;;5.68;3.50;;;;;;;17.63;58.35;99465.19;338551;28;5138;-69
2023/06/16 00:47:39;;;;;;;4.63;3.45;;;;;;;17.61;57.94;99461.81;337323;28;11979;-69
2023/06/16 00:47:52;;;;;;;5.05;3.65;;;;;;;17.65;58.06;99463.28;338575;28;5239;-69
2023/06/16 00:48:05;;;;;;;5.20;3.58;;;;;;;17.67;57.62;99461.41;336372;28;12152;-69
2023/06/16 00:48:17;;;;;;;5.05;3.70;;;;;;;17.67;57.56;99466.66;338479;28;4630;-69
2023/06/16 00:48:32;;;;;;;4.95;3.70;;;;;;;17.68;57.57;99458.66;336392;28;12337;-69
2023/06/16 00:48:44;;;;;;;4.60;3.80;;;;;;;17.69;57.54;99457.72;336452;28;12203;-68
2023/06/16 00:48:58;;;;;;;4.18;3.65;;;;;;;17.68;57.45;99461.28;339170;28;5226;-69
2023/06/16 00:49:10;;;;;;;3.83;3.42;;;;;;;17.70;57.45;99462.03;336531;28;17945;-69
2023/06/16 00:49:23;;;;;;;4.38;3.60;;;;;;;17.72;57.57;99460.13;339184;28;5529;-69
2023/06/16 00:49:36;;;;;;;5.38;3.85;;;;;;;17.69;57.80;99464.78;337885;28;18231;-68
2023/06/16 00:49:48;;;;;;;6.30;3.80;;;;;;;17.71;57.55;99462.91;339355;28;4749;-68
2023/06/16 00:50:00;;;;;;;5.25;3.55;;;;;;;17.72;57.54;99459.31;335849;28;18526;-69
2023/06/16 00:50:13;;;;;;;4.45;3.30;;;;;;;17.71;57.74;99463.72;338483;28;4792;-69
2023/06/16 00:50:26;;;;;;;4.45;3.45;;;;;;;17.70;57.54;99459.41;336345;28;18443;-68
2023/06/16 00:50:38;;;;;;;6.03;3.90;;;;;;;17.70;57.14;99463.81;337305;28;5396;-69
2023/06/16 00:50:51;;;;;;;7.30;4.10;;;;;;;17.71;57.30;99463.72;333444;28;17594;-68
2023/06/16 00:51:03;;;;;;;7.68;3.75;;;;;;;17.71;57.47;99462.91;337463;28;5381;-69
2023/06/16 00:51:16;;;;;;;6.38;3.67;;;;;;;17.70;57.47;99456.78;337376;28;18239;-68
2023/06/16 00:51:30;;;;;;;7.15;4.13;;;;;;;17.71;58.07;99461.09;339615;28;5436;-69
2023/06/16 00:51:43;;;;;;;7.53;4.10;;;;;;;17.72;57.98;99465.41;337728;28;18227;-69
2023/06/16 00:51:55;;;;;;;6.85;3.63;;;;;;;17.74;58.01;99460.03;335405;28;18461;-69
2023/06/16 00:52:09;;;;;;;6.72;3.70;;;;;;;17.74;58.46;99460.03;338010;28;4630;-69
2023/06/16 00:52:27;;;;;;;5.40;3.88;;;;;;;17.74;59.06;99463.50;335954;28;18044;-69
2023/06/16 00:52:39;;;;;;;4.75;3.78;;;;;;;17.72;58.72;99461.94;337312;28;17628;-69
2023/06/16 00:52:52;;;;;;;4.43;3.70;;;;;;;17.74;58.22;99467.94;340558;28;4771;-69
2023/06/16 00:53:04;;;;;;;4.70;3.83;;;;;;;17.75;58.17;99461.75;340209;28;4524;-69
2023/06/16 00:53:16;;;;;;;5.78;3.72;;;;;;;17.74;58.26;99465.31;337684;28;19408;-69
2023/06/16 00:53:31;;;;;;;5.90;4.07;;;;;;;17.77;58.01;99462.50;340426;28;4642;-68
2023/06/16 00:53:43;;;;;;;4.90;3.95;;;;;;;17.76;57.90;99466.03;337916;28;18145;-69
2023/06/16 00:53:56;;;;;;;5.43;3.72;;;;;;;17.77;57.91;99465.13;337505;28;18275;-70
2023/06/16 00:54:12;;;;;;;5.60;3.60;;;;;;;17.80;57.57;99467.53;340350;28;4513;-69
2023/06/16 00:54:27;;;;;;;5.30;3.50;;;;;;;17.83;57.78;99463.84;336227;28;19108;-69
2023/06/16 00:54:39;;;;;;;4.75;3.50;;;;;;;17.82;58.07;99465.66;339018;28;4647;-69
2023/06/16 00:54:54;;;;;;;4.45;3.58;;;;;;;17.81;57.35;99466.59;337392;28;18305;-69
2023/06/16 00:55:08;;;;;;;4.55;3.83;;;;;;;17.77;57.22;99465.94;337363;28;17971;-68
2023/06/16 00:55:22;;;;;;;6.18;3.92;;;;;;;17.77;57.28;99462.50;337454;28;18065;-69
2023/06/16 00:55:35;;;;;;;6.32;3.78;;;;;;;17.78;57.71;99465.00;337736;28;11427;-69
2023/06/16 00:55:48;;;;;;;6.82;3.70;;;;;;;17.75;57.34;99461.75;340121;28;4638;-68
2023/06/16 00:56:00;;;;;;;7.28;3.85;;;;;;;17.73;57.61;99461.84;335688;28;18171;-68
2023/06/16 00:56:12;;;;;;;6.30;3.90;;;;;;;17.73;57.52;99463.63;339974;28;4649;-68
2023/06/16 00:56:24;;;;;;;4.60;3.72;;;;;;;17.75;57.51;99456.50;335649;28;12126;-69
2023/06/16 00:56:38;;;;;;;4.55;3.80;;;;;;;17.76;57.46;99460.78;338837;28;4697;-69
2023/06/16 00:56:51;;;;;;;4.50;3.60;;;;;;;17.76;57.50;99466.03;336797;28;18498;-69
2023/06/16 00:57:05;;;;;;;4.05;3.45;;;;;;;17.78;57.69;99458.91;339251;28;4654;-68
2023/06/16 00:57:17;;;;;;;4.05;3.55;;;;;;;17.79;57.61;99465.88;334472;28;17948;-68
2023/06/16 00:57:30;;;;;;;4.53;3.58;;;;;;;17.80;57.87;99467.53;335472;28;12258;-68
2023/06/16 00:57:43;;;;;;;4.28;3.42;;;;;;;17.81;58.03;99463.97;337481;28;5284;-69
2023/06/16 00:57:56;;;;;;;3.88;3.20;;;;;;;17.81;58.11;99466.59;333393;29;18333;-69
2023/06/16 00:58:08;;;;;;;4.55;3.33;;;;;;;17.80;57.85;99467.53;336295;29;5261;-69
2023/06/16 00:58:21;;;;;;;5.25;3.78;;;;;;;17.77;58.20;99468.59;333931;29;16802;-69
2023/06/16 00:58:33;;;;;;;5.60;3.70;;;;;;;17.77;58.26;99465.13;336086;29;4836;-69
2023/06/16 00:58:45;;;;;;;5.75;3.83;;;;;;;17.78;57.98;99466.78;333676;29;16138;-69
2023/06/16 00:58:58;;;;;;;6.30;3.80;;;;;;;17.81;57.95;99465.75;336106;29;5185;-70
2023/06/16 00:59:10;;;;;;;5.15;3.47;;;;;;;17.82;57.77;99465.66;333424;28;18455;-68
2023/06/16 00:59:26;;;;;;;4.80;3.38;;;;;;;17.83;57.89;99463.84;334775;28;4651;-69
2023/06/16 00:59:40;;;;;;;4.90;3.53;;;;;;;17.83;57.67;99466.47;331277;28;18249;-69
2023/06/16 00:59:52;;;;;;;4.25;3.30;;;;;;;17.83;57.61;99467.38;330642;28;17881;-68
2023/06/16 01:00:07;;;;;;;4.55;3.28;;;;;;;17.84;57.84;99473.47;335563;28;10253;-69
2023/06/16 01:00:20;;;;;;;4.80;3.17;;;;;;;17.83;58.01;99467.38;337844;28;4558;-69
2023/06/16 01:00:35;;;;;;;4.88;3.42;;;;;;;17.81;58.54;99463.97;336194;28;17764;-69
2023/06/16 01:00:49;;;;;;;4.13;3.67;;;;;;;17.82;58.09;99465.66;336301;28;17841;-69
2023/06/16 01:01:03;;;;;;;4.35;3.67;;;;;;;17.83;57.86;99469.09;337974;28;18184;-69
2023/06/16 01:01:15;;;;;;;4.32;3.60;;;;;;;17.82;58.20;99470.91;337206;28;18198;-69
2023/06/16 01:01:29;;;;;;;4.07;3.47;;;;;;;17.81;58.10;99469.22;341378;28;4539;-69
2023/06/16 01:01:41;;;;;;;3.85;3.38;;;;;;;17.83;58.06;99469.09;336788;28;17981;-68
2023/06/16 01:01:55;;;;;;;4.00;3.40;;;;;;;17.83;58.08;99472.63;336645;28;4642;-68
2023/06/16 01:02:08;;;;;;;4.28;3.40;;;;;;;17.85;57.92;99475.13;332886;28;18339;-69